createdAt,value
2024-02-22T00:00:33.472Z,6.14
2024-02-22T00:01:35.843Z,6.14
2024-02-22T00:02:39.632Z,6.14
2024-02-22T00:03:41.832Z,6.13
2024-02-22T00:04:44.650Z,6.11
2024-02-22T00:05:46.955Z,6.08
2024-02-22T00:06:49.259Z,6.05
2024-02-22T00:07:52.606Z,6.04
2024-02-22T00:08:54.850Z,6.05
2024-02-22T00:09:58.484Z,6.05
2024-02-22T00:11:00.808Z,6.02
2024-02-22T00:12:03.349Z,6.02
2024-02-22T00:13:05.610Z,5.99
2024-02-22T00:14:08.478Z,5.98
2024-02-22T00:15:12.214Z,5.95
2024-02-22T00:16:18.011Z,5.93
2024-02-22T00:17:21.595Z,5.92
2024-02-22T00:18:24.495Z,5.90
2024-02-22T00:19:26.908Z,5.89
2024-02-22T00:20:29.187Z,5.91
2024-02-22T00:21:31.431Z,5.89
2024-02-22T00:22:33.692Z,5.87
2024-02-22T00:23:36.310Z,5.87
2024-02-22T00:24:39.472Z,5.87
2024-02-22T00:25:41.829Z,5.85
2024-02-22T00:26:44.046Z,5.85
2024-02-22T00:27:46.282Z,5.85
2024-02-22T00:28:48.537Z,5.85
2024-02-22T00:29:50.770Z,5.82
2024-02-22T00:30:52.998Z,5.79
2024-02-22T00:31:55.320Z,5.77
2024-02-22T00:32:58.250Z,5.76
2024-02-22T00:34:00.566Z,5.75
2024-02-22T00:35:03.033Z,5.75
2024-02-22T00:36:05.585Z,5.76
2024-02-22T00:37:08.448Z,5.75
2024-02-22T00:38:10.879Z,5.72
2024-02-22T00:39:13.292Z,5.74
2024-02-22T00:40:16.921Z,5.72
2024-02-22T00:41:22.321Z,5.75
2024-02-22T00:42:24.968Z,5.73
2024-02-22T00:43:27.327Z,5.73
2024-02-22T00:44:29.678Z,5.71
2024-02-22T00:45:35.261Z,5.68
2024-02-22T00:46:37.693Z,5.67
2024-02-22T00:47:40.004Z,5.63
2024-02-22T00:48:42.351Z,5.60
2024-02-22T00:49:44.809Z,5.60
2024-02-22T00:50:47.333Z,5.59
2024-02-22T00:51:49.638Z,5.57
2024-02-22T00:52:52.364Z,5.56
2024-02-22T00:53:54.676Z,5.56
2024-02-22T00:54:56.939Z,5.55
2024-02-22T00:55:59.195Z,5.56
2024-02-22T00:57:01.465Z,5.58
2024-02-22T00:58:05.512Z,5.56
2024-02-22T00:59:08.427Z,5.55
2024-02-22T01:00:12.718Z,5.54
2024-02-22T01:01:16.422Z,5.54
2024-02-22T01:02:18.717Z,5.57
2024-02-22T01:03:20.985Z,5.55
2024-02-22T01:04:23.344Z,5.54
2024-02-22T01:05:25.760Z,5.57
2024-02-22T01:06:28.147Z,5.58
2024-02-22T01:07:30.441Z,5.58
2024-02-22T01:08:32.750Z,5.60
2024-02-22T01:09:35.027Z,5.58
2024-02-22T01:10:37.303Z,5.55
2024-02-22T01:11:39.790Z,5.52
2024-02-22T01:12:42.257Z,5.53
2024-02-22T01:13:44.549Z,5.50
2024-02-22T01:14:46.801Z,5.49
2024-02-22T01:15:49.148Z,5.49
2024-02-22T01:16:51.677Z,5.49
2024-02-22T01:17:53.999Z,5.48
2024-02-22T01:18:56.465Z,5.50
2024-02-22T01:19:59.068Z,5.51
2024-02-22T01:21:01.353Z,5.50
2024-02-22T01:22:03.833Z,5.48
2024-02-22T01:23:07.975Z,5.48
2024-02-22T01:24:10.493Z,5.48
2024-02-22T01:25:13.019Z,5.46
2024-02-22T01:26:16.479Z,5.47
2024-02-22T01:27:18.808Z,5.46
2024-02-22T01:28:21.229Z,5.44
2024-02-22T01:29:23.534Z,5.42
2024-02-22T01:30:25.799Z,5.40
2024-02-22T01:31:28.051Z,5.39
2024-02-22T01:32:30.357Z,5.39
2024-02-22T01:33:32.829Z,5.40
2024-02-22T01:34:35.412Z,5.39
2024-02-22T01:35:37.733Z,5.38
2024-02-22T01:36:39.966Z,5.38
2024-02-22T01:37:42.853Z,5.37
2024-02-22T01:38:45.174Z,5.38
2024-02-22T01:39:47.505Z,5.38
2024-02-22T01:40:49.906Z,5.36
2024-02-22T01:41:52.168Z,5.35
2024-02-22T01:42:55.483Z,5.35
2024-02-22T01:43:57.758Z,5.35
2024-02-22T01:45:04.112Z,5.34
2024-02-22T01:46:06.429Z,5.31
2024-02-22T01:47:08.859Z,5.32
2024-02-22T01:48:11.370Z,5.29
2024-02-22T01:49:13.746Z,5.31
2024-02-22T01:50:19.000Z,5.30
2024-02-22T01:51:21.892Z,5.29
2024-02-22T01:52:24.193Z,5.28
2024-02-22T01:53:27.977Z,5.26
2024-02-22T01:54:30.244Z,5.23
2024-02-22T01:55:32.617Z,5.23
2024-02-22T01:56:35.103Z,5.25
2024-02-22T01:57:37.855Z,5.24
2024-02-22T01:58:40.459Z,5.24
2024-02-22T01:59:42.814Z,5.23
2024-02-22T02:00:45.163Z,5.25
2024-02-22T02:01:49.390Z,5.26
2024-02-22T02:02:51.732Z,5.25
2024-02-22T02:03:54.726Z,5.25
2024-02-22T02:04:57.484Z,5.25
2024-02-22T02:06:00.849Z,5.24
2024-02-22T02:07:03.102Z,5.22
2024-02-22T02:08:05.767Z,5.22
2024-02-22T02:09:09.431Z,5.19
2024-02-22T02:10:11.714Z,5.19
2024-02-22T02:11:14.085Z,5.16
2024-02-22T02:12:24.264Z,5.14
2024-02-22T02:13:26.566Z,5.13
2024-02-22T02:14:28.825Z,5.10
2024-02-22T02:15:31.109Z,5.07
2024-02-22T02:16:33.442Z,5.06
2024-02-22T02:17:35.894Z,5.06
2024-02-22T02:18:39.984Z,5.07
2024-02-22T02:19:42.521Z,5.08
2024-02-22T02:21:00.147Z,5.07
2024-02-22T02:22:12.699Z,5.06
2024-02-22T02:23:28.758Z,5.05
2024-02-22T02:24:34.603Z,5.06
2024-02-22T02:25:37.110Z,5.07
2024-02-22T02:26:39.523Z,5.07
2024-02-22T02:27:42.062Z,5.06
2024-02-22T02:28:44.383Z,5.04
2024-02-22T02:29:47.309Z,5.04
2024-02-22T02:30:49.564Z,5.04
2024-02-22T02:31:51.985Z,5.03
2024-02-22T02:32:54.362Z,5.05
2024-02-22T02:33:56.658Z,5.06
2024-02-22T02:34:59.152Z,5.04
2024-02-22T02:36:01.427Z,5.04
2024-02-22T02:37:03.730Z,5.05
2024-02-22T02:38:10.772Z,5.08
2024-02-22T02:39:13.661Z,5.08
2024-02-22T02:40:15.921Z,5.09
2024-02-22T02:41:18.353Z,5.09
2024-02-22T02:42:20.627Z,5.09
2024-02-22T02:43:22.863Z,5.11
2024-02-22T02:44:25.176Z,5.14
2024-02-22T02:45:27.922Z,5.16
2024-02-22T02:46:30.240Z,5.15
2024-02-22T02:47:32.578Z,5.14
2024-02-22T02:48:34.909Z,5.15
2024-02-22T02:49:37.222Z,5.13
2024-02-22T02:50:39.498Z,5.13
2024-02-22T02:51:41.781Z,5.13
2024-02-22T02:52:44.043Z,5.10
2024-02-22T02:53:46.430Z,5.09
2024-02-22T02:54:48.670Z,5.12
2024-02-22T02:55:50.927Z,5.10
2024-02-22T02:56:53.153Z,5.09
2024-02-22T02:57:55.837Z,5.08
2024-02-22T02:58:58.779Z,5.06
2024-02-22T03:00:01.008Z,5.04
2024-02-22T03:01:03.263Z,5.05
2024-02-22T03:02:05.595Z,5.05
2024-02-22T03:03:07.862Z,5.05
2024-02-22T03:04:10.134Z,5.02
2024-02-22T03:05:12.983Z,5.05
2024-02-22T03:06:15.503Z,5.06
2024-02-22T03:07:17.757Z,5.04
2024-02-22T03:08:20.021Z,5.02
2024-02-22T03:09:22.393Z,5.01
2024-02-22T03:10:25.152Z,5.00
2024-02-22T03:11:27.529Z,4.99
2024-02-22T03:12:29.862Z,4.97
2024-02-22T03:13:32.184Z,4.95
2024-02-22T03:14:34.458Z,4.96
2024-02-22T03:15:39.422Z,4.95
2024-02-22T03:16:41.716Z,4.93
2024-02-22T03:17:43.981Z,4.93
2024-02-22T03:18:46.240Z,4.93
2024-02-22T03:19:48.601Z,4.93
2024-02-22T03:20:51.893Z,4.90
2024-02-22T03:21:54.139Z,4.87
2024-02-22T03:22:56.487Z,4.85
2024-02-22T03:23:59.018Z,4.84
2024-02-22T03:25:01.332Z,4.83
2024-02-22T03:26:04.459Z,4.84
2024-02-22T03:27:12.086Z,4.80
2024-02-22T03:28:16.416Z,4.79
2024-02-22T03:29:18.731Z,4.81
2024-02-22T03:30:21.346Z,4.80
2024-02-22T03:31:23.978Z,4.83
2024-02-22T03:32:26.740Z,4.86
2024-02-22T03:33:29.505Z,4.87
2024-02-22T03:34:33.583Z,4.87
2024-02-22T03:35:38.309Z,4.87
2024-02-22T03:36:43.122Z,4.87
2024-02-22T03:37:45.558Z,4.84
2024-02-22T03:38:48.239Z,4.82
2024-02-22T03:39:51.138Z,4.84
2024-02-22T03:40:55.161Z,4.82
2024-02-22T03:41:57.910Z,4.79
2024-02-22T03:43:00.209Z,4.83
2024-02-22T03:44:02.544Z,4.84
2024-02-22T03:45:06.582Z,4.83
2024-02-22T03:46:08.859Z,4.84
2024-02-22T03:47:12.676Z,4.83
2024-02-22T03:48:15.100Z,4.84
2024-02-22T03:49:17.457Z,4.84
2024-02-22T03:50:19.855Z,4.85
2024-02-22T03:51:23.726Z,4.83
2024-02-22T03:52:25.977Z,4.81
2024-02-22T03:53:28.262Z,4.81
2024-02-22T03:54:32.291Z,4.79
2024-02-22T03:55:34.655Z,4.81
2024-02-22T03:56:37.694Z,4.82
2024-02-22T03:57:39.940Z,4.80
2024-02-22T03:58:42.232Z,4.79
2024-02-22T03:59:44.469Z,4.78
2024-02-22T04:00:46.810Z,4.76
2024-02-22T04:01:51.075Z,4.77
2024-02-22T04:02:54.719Z,4.75
2024-02-22T04:03:57.186Z,4.76
2024-02-22T04:05:01.988Z,4.76
2024-02-22T04:06:04.564Z,4.74
2024-02-22T04:07:08.831Z,4.74
2024-02-22T04:08:11.119Z,4.78
2024-02-22T04:09:13.358Z,4.77
2024-02-22T04:10:15.900Z,4.77
2024-02-22T04:11:18.809Z,4.78
2024-02-22T04:12:21.273Z,4.77
2024-02-22T04:13:23.535Z,4.75
2024-02-22T04:14:25.746Z,4.74
2024-02-22T04:15:28.009Z,4.74
2024-02-22T04:16:30.332Z,4.75
2024-02-22T04:17:32.634Z,4.74
2024-02-22T04:18:35.256Z,4.75
2024-02-22T04:19:38.264Z,4.75
2024-02-22T04:20:40.525Z,4.77
2024-02-22T04:21:42.967Z,4.76
2024-02-22T04:22:48.163Z,4.74
2024-02-22T04:23:50.531Z,4.74
2024-02-22T04:24:53.011Z,4.74
2024-02-22T04:25:56.170Z,4.74
2024-02-22T04:27:00.458Z,4.73
2024-02-22T04:28:02.795Z,4.71
2024-02-22T04:29:05.124Z,4.71
2024-02-22T04:30:07.922Z,4.70
2024-02-22T04:31:10.335Z,4.71
2024-02-22T04:32:12.631Z,4.70
2024-02-22T04:33:15.728Z,4.71
2024-02-22T04:34:18.134Z,4.73
2024-02-22T04:35:21.274Z,4.74
2024-02-22T04:36:23.617Z,4.73
2024-02-22T04:37:25.851Z,4.73
2024-02-22T04:38:28.224Z,4.74
2024-02-22T04:39:30.691Z,4.74
2024-02-22T04:40:32.943Z,4.74
2024-02-22T04:41:35.513Z,4.73
2024-02-22T04:42:37.830Z,4.74
2024-02-22T04:43:40.100Z,4.75
2024-02-22T04:44:42.387Z,4.75
2024-02-22T04:45:44.787Z,4.75
2024-02-22T04:46:47.111Z,4.79
2024-02-22T04:47:51.763Z,4.80
2024-02-22T04:48:54.173Z,4.77
2024-02-22T04:49:57.486Z,4.76
2024-02-22T04:50:59.760Z,4.76
2024-02-22T04:52:04.534Z,4.76
2024-02-22T04:53:07.692Z,4.75
2024-02-22T04:54:10.414Z,4.74
2024-02-22T04:55:12.662Z,4.73
2024-02-22T04:56:14.990Z,4.73
2024-02-22T04:57:17.228Z,4.76
2024-02-22T04:58:19.507Z,4.76
2024-02-22T04:59:21.870Z,4.74
2024-02-22T05:00:24.120Z,4.75
2024-02-22T05:01:27.974Z,4.76
2024-02-22T05:02:30.314Z,4.76
2024-02-22T05:03:32.617Z,4.76
2024-02-22T05:04:34.939Z,4.76
2024-02-22T05:05:37.282Z,4.75
2024-02-22T05:06:39.643Z,4.75
2024-02-22T05:07:41.915Z,4.75
2024-02-22T05:08:44.167Z,4.75
2024-02-22T05:09:46.735Z,4.78
2024-02-22T05:10:49.029Z,4.84
2024-02-22T05:11:51.447Z,4.82
2024-02-22T05:12:53.727Z,4.85
2024-02-22T05:13:58.561Z,4.84
2024-02-22T05:15:01.076Z,4.82
2024-02-22T05:16:03.630Z,4.83
2024-02-22T05:17:05.939Z,4.82
2024-02-22T05:18:08.300Z,4.84
2024-02-22T05:19:10.762Z,4.84
2024-02-22T05:20:13.179Z,4.83
2024-02-22T05:21:15.511Z,4.82
2024-02-22T05:22:17.747Z,4.81
2024-02-22T05:23:20.058Z,4.80
2024-02-22T05:24:22.980Z,4.78
2024-02-22T05:25:26.604Z,4.79
2024-02-22T05:26:30.110Z,4.84
2024-02-22T05:27:32.387Z,4.86
2024-02-22T05:28:35.028Z,4.90
2024-02-22T05:29:38.012Z,4.88
2024-02-22T05:30:40.308Z,4.92
2024-02-22T05:31:42.617Z,4.97
2024-02-22T05:32:44.989Z,4.96
2024-02-22T05:33:47.282Z,4.96
2024-02-22T05:34:49.608Z,4.95
2024-02-22T05:35:51.898Z,4.97
2024-02-22T05:36:54.184Z,4.96
2024-02-22T05:37:56.436Z,5.00
2024-02-22T05:39:02.540Z,4.99
2024-02-22T05:40:09.501Z,4.97
2024-02-22T05:41:12.003Z,4.97
2024-02-22T05:42:15.140Z,4.96
2024-02-22T05:43:18.104Z,4.96
2024-02-22T05:44:20.888Z,4.96
2024-02-22T05:45:47.033Z,4.93
2024-02-22T05:46:49.632Z,4.94
2024-02-22T05:47:52.009Z,4.93
2024-02-22T05:48:54.439Z,4.93
2024-02-22T05:49:56.795Z,4.93
2024-02-22T05:50:59.183Z,4.94
2024-02-22T05:52:01.449Z,4.93
2024-02-22T05:53:03.990Z,4.93
2024-02-22T05:54:06.309Z,4.95
2024-02-22T05:55:09.047Z,4.98
2024-02-22T05:56:11.453Z,4.97
2024-02-22T05:57:13.941Z,4.97
2024-02-22T05:58:17.883Z,4.98
2024-02-22T05:59:20.157Z,4.96
2024-02-22T06:00:22.417Z,4.99
2024-02-22T06:01:24.692Z,5.01
2024-02-22T06:02:27.266Z,5.04
2024-02-22T06:03:29.587Z,5.07
2024-02-22T06:04:31.924Z,5.12
2024-02-22T06:05:35.221Z,5.13
2024-02-22T06:06:37.549Z,5.15
2024-02-22T06:07:40.002Z,5.16
2024-02-22T06:08:44.031Z,5.21
2024-02-22T06:09:46.316Z,5.23
2024-02-22T06:10:48.716Z,5.26
2024-02-22T06:11:51.105Z,5.29
2024-02-22T06:12:53.392Z,5.34
2024-02-22T06:13:55.627Z,5.36
2024-02-22T06:14:57.892Z,5.38
2024-02-22T06:16:00.140Z,5.42
2024-02-22T06:17:02.446Z,5.44
2024-02-22T06:18:05.117Z,5.43
2024-02-22T06:19:07.515Z,5.44
2024-02-22T06:20:10.608Z,5.47
2024-02-22T06:21:12.910Z,5.49
2024-02-22T06:22:15.213Z,5.51
2024-02-22T06:23:17.528Z,5.52
2024-02-22T06:24:19.757Z,5.52
2024-02-22T06:25:22.052Z,5.52
2024-02-22T06:26:24.847Z,5.54
2024-02-22T06:27:27.376Z,5.55
2024-02-22T06:28:29.604Z,5.58
2024-02-22T06:29:32.066Z,5.57
2024-02-22T06:30:34.294Z,5.60
2024-02-22T06:31:36.682Z,5.60
2024-02-22T06:32:39.092Z,5.63
2024-02-22T06:33:41.473Z,5.64
2024-02-22T06:34:44.307Z,5.63
2024-02-22T06:35:46.689Z,5.66
2024-02-22T06:36:49.037Z,5.65
2024-02-22T06:37:52.528Z,5.67
2024-02-22T06:38:55.187Z,5.67
2024-02-22T06:39:57.515Z,5.70
2024-02-22T06:40:59.945Z,5.73
2024-02-22T06:42:03.235Z,5.76
2024-02-22T06:43:06.559Z,5.79
2024-02-22T06:44:08.889Z,5.82
2024-02-22T06:45:11.218Z,5.82
2024-02-22T06:46:13.532Z,5.88
2024-02-22T06:47:16.558Z,5.88
2024-02-22T06:48:19.041Z,5.94
2024-02-22T06:49:21.336Z,5.95
2024-02-22T06:50:24.615Z,6.01
2024-02-22T06:51:26.929Z,6.06
2024-02-22T06:52:29.249Z,6.09
2024-02-22T06:53:31.493Z,6.09
2024-02-22T06:54:34.580Z,6.10
2024-02-22T06:55:36.926Z,6.11
2024-02-22T06:56:40.230Z,6.14
2024-02-22T06:57:42.452Z,6.19
2024-02-22T06:58:44.715Z,6.19
2024-02-22T06:59:47.012Z,6.24
2024-02-22T07:00:50.020Z,6.26
2024-02-22T07:01:52.333Z,6.29
2024-02-22T07:02:55.424Z,6.33
2024-02-22T07:03:58.452Z,6.35
2024-02-22T07:05:00.806Z,6.40
2024-02-22T07:06:03.125Z,6.38
2024-02-22T07:07:05.400Z,6.46
2024-02-22T07:08:07.971Z,6.52
2024-02-22T07:09:10.346Z,6.56
2024-02-22T07:10:16.301Z,6.56
2024-02-22T07:11:18.641Z,6.54
2024-02-22T07:12:21.028Z,6.57
2024-02-22T07:13:23.312Z,6.65
2024-02-22T07:14:25.693Z,6.69
2024-02-22T07:15:27.971Z,6.65
2024-02-22T07:16:30.655Z,6.66
2024-02-22T07:17:33.020Z,6.69
2024-02-22T07:18:35.420Z,6.77
2024-02-22T07:19:37.788Z,6.84
2024-02-22T07:20:40.140Z,6.86
2024-02-22T07:21:42.445Z,6.87
2024-02-22T07:22:46.756Z,6.85
2024-02-22T07:23:49.114Z,6.90
2024-02-22T07:24:51.386Z,6.92
2024-02-22T07:25:53.722Z,6.85
2024-02-22T07:26:56.072Z,6.88
2024-02-22T07:27:58.415Z,6.83
2024-02-22T07:29:01.266Z,6.84
2024-02-22T07:30:03.719Z,6.86
2024-02-22T07:31:06.496Z,6.89
2024-02-22T07:32:09.543Z,6.94
2024-02-22T07:33:12.050Z,6.97
2024-02-22T07:34:14.405Z,6.93
2024-02-22T07:35:18.522Z,6.90
2024-02-22T07:36:20.851Z,6.98
2024-02-22T07:37:23.107Z,6.98
2024-02-22T07:38:25.748Z,6.97
2024-02-22T07:39:28.560Z,7.00
2024-02-22T07:40:30.788Z,7.07
2024-02-22T07:41:33.028Z,7.05
2024-02-22T07:42:35.287Z,7.10
2024-02-22T07:43:37.553Z,7.12
2024-02-22T07:44:44.303Z,7.17
2024-02-22T07:45:46.548Z,7.21
2024-02-22T07:46:48.837Z,7.15
2024-02-22T07:47:51.164Z,7.15
2024-02-22T07:48:53.502Z,7.19
2024-02-22T07:49:55.770Z,7.21
2024-02-22T07:51:00.630Z,7.20
2024-02-22T07:52:02.748Z,7.21
2024-02-22T07:53:07.341Z,7.25
2024-02-22T07:54:09.644Z,7.25
2024-02-22T07:55:11.883Z,7.33
2024-02-22T07:56:14.255Z,7.36
2024-02-22T07:57:16.562Z,7.31
2024-02-22T07:58:19.420Z,7.35
2024-02-22T07:59:21.898Z,7.32
2024-02-22T08:00:24.233Z,7.40
2024-02-22T08:01:26.542Z,7.43
2024-02-22T08:02:29.458Z,7.46
2024-02-22T08:03:31.780Z,7.42
2024-02-22T08:04:34.266Z,7.46
2024-02-22T08:05:36.729Z,7.45
2024-02-22T08:06:39.055Z,7.47
2024-02-22T08:07:41.807Z,7.50
2024-02-22T08:08:44.415Z,7.59
2024-02-22T08:09:46.705Z,7.71
2024-02-22T08:10:49.098Z,7.75
2024-02-22T08:11:51.467Z,7.81
2024-02-22T08:12:54.322Z,7.86
2024-02-22T08:13:56.644Z,7.93
2024-02-22T08:14:59.700Z,7.93
2024-02-22T08:16:09.703Z,7.95
2024-02-22T08:17:12.054Z,8.00
2024-02-22T08:18:14.394Z,7.99
2024-02-22T08:19:16.682Z,8.03
2024-02-22T08:20:19.206Z,8.11
2024-02-22T08:21:21.624Z,8.18
2024-02-22T08:22:23.910Z,8.21
2024-02-22T08:23:26.474Z,8.29
2024-02-22T08:24:28.738Z,8.27
2024-02-22T08:25:30.968Z,8.33
2024-02-22T08:26:33.196Z,8.33
2024-02-22T08:27:38.414Z,8.46
2024-02-22T08:28:45.184Z,8.34
2024-02-22T08:29:52.289Z,8.45
2024-02-22T08:30:54.760Z,8.60
2024-02-22T08:31:57.221Z,8.67
2024-02-22T08:33:00.176Z,8.69
2024-02-22T08:34:02.658Z,8.81
2024-02-22T08:35:06.887Z,9.01
2024-02-22T08:36:09.293Z,8.90
2024-02-22T08:37:11.787Z,8.90
2024-02-22T08:38:14.421Z,8.68
2024-02-22T08:39:19.479Z,8.60
2024-02-22T08:40:31.341Z,8.51
2024-02-22T08:41:41.381Z,8.53
2024-02-22T08:42:43.693Z,8.55
2024-02-22T08:43:46.104Z,8.53
2024-02-22T08:44:48.472Z,8.50
2024-02-22T08:45:52.314Z,8.47
2024-02-22T08:46:54.671Z,8.45
2024-02-22T08:47:57.068Z,8.52
2024-02-22T08:48:59.445Z,8.53
2024-02-22T08:50:01.790Z,8.44
2024-02-22T08:51:04.701Z,8.44
2024-02-22T08:52:07.652Z,8.46
2024-02-22T08:53:10.225Z,8.45
2024-02-22T08:54:12.553Z,8.46
2024-02-22T08:55:15.107Z,8.50
2024-02-22T08:56:17.444Z,8.51
2024-02-22T08:57:19.777Z,8.56
2024-02-22T08:58:22.039Z,8.55
2024-02-22T08:59:25.151Z,8.59
2024-02-22T09:00:27.527Z,8.63
2024-02-22T09:01:31.312Z,8.69
2024-02-22T09:02:33.814Z,8.82
2024-02-22T09:03:36.184Z,8.86
2024-02-22T09:04:38.539Z,8.92
2024-02-22T09:05:42.849Z,8.87
2024-02-22T09:06:45.285Z,9.05
2024-02-22T09:07:51.924Z,9.06
2024-02-22T09:08:54.920Z,9.08
2024-02-22T09:09:58.097Z,9.37
2024-02-22T09:11:00.446Z,9.65
2024-02-22T09:12:03.986Z,9.64
2024-02-22T09:13:06.300Z,9.67
2024-02-22T09:14:08.709Z,9.65
2024-02-22T09:15:12.882Z,9.80
2024-02-22T09:16:15.239Z,9.82
2024-02-22T09:17:17.604Z,9.72
2024-02-22T09:18:20.545Z,9.55
2024-02-22T09:19:24.664Z,9.64
2024-02-22T09:20:28.812Z,9.85
2024-02-22T09:21:31.732Z,9.99
2024-02-22T09:22:34.291Z,9.99
2024-02-22T09:23:36.723Z,10.04
2024-02-22T09:24:44.885Z,10.33
2024-02-22T09:25:47.629Z,10.78
2024-02-22T09:26:49.871Z,10.67
2024-02-22T09:27:52.160Z,10.77
2024-02-22T09:28:54.803Z,10.91
2024-02-22T09:29:59.518Z,10.84
2024-02-22T09:31:02.052Z,10.87
2024-02-22T09:32:04.843Z,10.83
2024-02-22T09:33:09.379Z,10.84
2024-02-22T09:34:11.816Z,10.88
2024-02-22T09:35:14.502Z,11.02
2024-02-22T09:36:18.347Z,11.18
2024-02-22T09:37:21.237Z,11.39
2024-02-22T09:38:23.568Z,11.43
2024-02-22T09:39:25.862Z,11.56
2024-02-22T09:40:28.301Z,11.48
2024-02-22T09:41:31.229Z,11.79
2024-02-22T09:42:33.626Z,11.71
2024-02-22T09:43:37.429Z,11.79
2024-02-22T09:44:39.911Z,11.85
2024-02-22T09:45:44.366Z,11.64
2024-02-22T09:46:55.347Z,11.98
2024-02-22T09:47:58.062Z,12.16
2024-02-22T09:49:00.471Z,12.21
2024-02-22T09:50:03.970Z,12.48
2024-02-22T09:51:07.036Z,12.54
2024-02-22T09:52:11.293Z,12.83
2024-02-22T09:53:13.769Z,12.94
2024-02-22T09:54:16.691Z,12.86
2024-02-22T09:55:20.074Z,12.71
2024-02-22T09:56:22.404Z,13.01
2024-02-22T09:57:24.651Z,13.35
2024-02-22T09:58:26.872Z,13.55
2024-02-22T09:59:29.117Z,13.72
2024-02-22T10:00:31.394Z,14.28
2024-02-22T10:01:34.454Z,14.21
2024-02-22T10:02:37.339Z,14.32
2024-02-22T10:03:41.613Z,14.65
2024-02-22T10:04:57.588Z,13.94
2024-02-22T10:06:00.362Z,13.66
2024-02-22T10:07:03.764Z,13.66
2024-02-22T10:08:13.522Z,13.65
2024-02-22T10:09:15.992Z,13.73
2024-02-22T10:10:25.924Z,13.46
2024-02-22T10:11:28.610Z,13.32
2024-02-22T10:12:35.279Z,13.16
2024-02-22T10:13:38.724Z,13.05
2024-02-22T10:14:41.525Z,13.01
2024-02-22T10:15:43.802Z,13.40
2024-02-22T10:16:47.212Z,13.40
2024-02-22T10:17:49.740Z,13.53
2024-02-22T10:18:52.132Z,13.69
2024-02-22T10:19:58.263Z,13.68
2024-02-22T10:21:00.595Z,13.91
2024-02-22T10:22:04.522Z,13.99
2024-02-22T10:23:10.340Z,14.18
2024-02-22T10:24:12.740Z,14.20
2024-02-22T10:25:18.394Z,13.95
2024-02-22T10:26:20.690Z,13.66
2024-02-22T10:27:26.413Z,13.45
2024-02-22T10:28:28.699Z,13.31
2024-02-22T10:29:31.216Z,13.45
2024-02-22T10:30:34.344Z,13.35
2024-02-22T10:31:49.178Z,13.44
2024-02-22T10:32:52.671Z,13.41
2024-02-22T10:33:55.648Z,13.22
2024-02-22T10:34:58.145Z,13.11
2024-02-22T10:36:01.068Z,13.02
2024-02-22T10:37:05.541Z,13.12
2024-02-22T10:38:11.002Z,13.19
2024-02-22T10:39:14.547Z,13.43
2024-02-22T10:40:19.387Z,13.43
2024-02-22T10:41:23.266Z,13.51
2024-02-22T10:42:26.932Z,13.45
2024-02-22T10:43:29.605Z,13.39
2024-02-22T10:44:31.844Z,13.12
2024-02-22T10:45:35.445Z,13.10
2024-02-22T10:46:38.941Z,13.35
2024-02-22T10:47:41.976Z,13.67
2024-02-22T10:48:47.219Z,13.65
2024-02-22T10:49:49.936Z,13.58
2024-02-22T10:50:53.105Z,13.50
2024-02-22T10:51:56.063Z,13.65
2024-02-22T10:52:59.580Z,13.61
2024-02-22T10:54:04.548Z,13.58
2024-02-22T10:55:11.167Z,13.51
2024-02-22T10:56:16.432Z,13.31
2024-02-22T10:57:19.854Z,13.50
2024-02-22T10:58:25.343Z,13.85
2024-02-22T10:59:30.039Z,14.07
2024-02-22T11:00:33.539Z,14.09
2024-02-22T11:01:38.813Z,14.02
2024-02-22T11:02:42.070Z,14.43
2024-02-22T11:03:45.573Z,14.82
2024-02-22T11:04:48.061Z,14.93
2024-02-22T11:05:53.069Z,15.10
2024-02-22T11:06:55.391Z,14.79
2024-02-22T11:07:59.142Z,14.83
2024-02-22T11:09:01.915Z,14.78
2024-02-22T11:10:10.858Z,15.18
2024-02-22T11:11:13.210Z,14.99
2024-02-22T11:12:15.546Z,14.85
2024-02-22T11:13:18.187Z,14.56
2024-02-22T11:14:30.368Z,14.87
2024-02-22T11:15:37.418Z,14.89
2024-02-22T11:16:42.089Z,14.93
2024-02-22T11:17:55.016Z,14.99
2024-02-22T11:19:10.901Z,14.52
2024-02-22T11:20:13.492Z,14.16
2024-02-22T11:21:15.897Z,14.16
2024-02-22T11:22:21.859Z,14.08
2024-02-22T11:23:25.787Z,13.95
2024-02-22T11:24:29.565Z,14.14
2024-02-22T11:25:32.156Z,14.12
2024-02-22T11:26:35.538Z,14.11
2024-02-22T11:27:40.421Z,13.68
2024-02-22T11:28:42.711Z,13.59
2024-02-22T11:29:45.133Z,13.21
2024-02-22T11:30:48.102Z,13.29
2024-02-22T11:31:50.918Z,13.22
2024-02-22T11:32:53.391Z,13.21
2024-02-22T11:33:59.038Z,13.54
2024-02-22T11:35:01.342Z,13.68
2024-02-22T11:36:04.518Z,13.61
2024-02-22T11:37:18.410Z,13.66
2024-02-22T11:38:21.469Z,13.67
2024-02-22T11:39:24.294Z,13.45
2024-02-22T11:40:31.809Z,13.49
2024-02-22T11:41:34.412Z,13.45
2024-02-22T11:42:37.155Z,13.43
2024-02-22T11:43:39.616Z,13.44
2024-02-22T11:44:42.716Z,13.31
2024-02-22T11:46:04.026Z,13.37
2024-02-22T11:47:07.697Z,13.32
2024-02-22T11:48:10.100Z,13.23
2024-02-22T11:49:12.612Z,13.15
2024-02-22T11:50:16.139Z,13.18
2024-02-22T11:51:18.422Z,13.26
2024-02-22T11:52:22.924Z,13.39
2024-02-22T11:53:25.250Z,13.36
2024-02-22T11:54:27.978Z,13.48
2024-02-22T11:55:30.209Z,13.64
2024-02-22T11:56:32.454Z,13.52
2024-02-22T11:57:34.979Z,13.61
2024-02-22T11:58:40.194Z,13.81
2024-02-22T11:59:43.690Z,13.59
2024-02-22T12:00:46.279Z,13.38
2024-02-22T12:01:48.810Z,13.53
2024-02-22T12:02:51.364Z,13.53
2024-02-22T12:03:54.103Z,13.63
2024-02-22T12:04:56.844Z,13.55
2024-02-22T12:05:59.705Z,13.79
2024-02-22T12:07:03.313Z,13.63
2024-02-22T12:08:06.262Z,13.54
2024-02-22T12:09:13.915Z,13.54
2024-02-22T12:10:17.457Z,13.24
2024-02-22T12:11:20.369Z,13.27
2024-02-22T12:12:26.891Z,13.32
2024-02-22T12:13:29.996Z,13.12
2024-02-22T12:14:32.546Z,13.02
2024-02-22T12:15:34.818Z,12.99
2024-02-22T12:16:40.551Z,12.97
2024-02-22T12:17:42.995Z,13.01
2024-02-22T12:18:45.584Z,12.94
2024-02-22T12:19:47.829Z,12.91
2024-02-22T12:20:50.070Z,12.91
2024-02-22T12:21:52.630Z,12.88
2024-02-22T12:22:56.416Z,12.90
2024-02-22T12:23:59.746Z,12.85
2024-02-22T12:25:02.022Z,12.83
2024-02-22T12:26:07.815Z,12.79
2024-02-22T12:27:13.667Z,12.81
2024-02-22T12:28:15.908Z,12.83
2024-02-22T12:29:18.227Z,12.85
2024-02-22T12:30:21.092Z,12.96
2024-02-22T12:31:23.557Z,13.08
2024-02-22T12:32:25.951Z,13.21
2024-02-22T12:33:28.393Z,13.23
2024-02-22T12:34:30.882Z,13.13
2024-02-22T12:35:33.252Z,13.19
2024-02-22T12:36:35.593Z,13.30
2024-02-22T12:37:37.900Z,13.39
2024-02-22T12:38:40.136Z,13.48
2024-02-22T12:39:42.622Z,13.48
2024-02-22T12:40:46.034Z,13.51
2024-02-22T12:41:48.394Z,13.62
2024-02-22T12:42:57.004Z,13.82
2024-02-22T12:43:59.330Z,13.85
2024-02-22T12:45:01.606Z,13.76
2024-02-22T12:46:04.262Z,13.76
2024-02-22T12:47:12.321Z,13.82
2024-02-22T12:48:14.705Z,13.90
2024-02-22T12:49:17.090Z,13.82
2024-02-22T12:50:19.374Z,13.50
2024-02-22T12:51:22.123Z,13.49
2024-02-22T12:52:24.469Z,13.44
2024-02-22T12:53:27.275Z,13.40
2024-02-22T12:54:29.560Z,13.31
2024-02-22T12:55:31.845Z,13.25
2024-02-22T12:56:34.177Z,13.24
2024-02-22T12:57:36.457Z,13.31
2024-02-22T12:58:38.719Z,13.30
2024-02-22T12:59:42.185Z,13.24
2024-02-22T13:00:44.627Z,13.21
2024-02-22T13:01:49.343Z,13.21
2024-02-22T13:02:51.832Z,13.22
2024-02-22T13:03:54.140Z,13.21
2024-02-22T13:04:56.494Z,13.16
2024-02-22T13:05:58.964Z,13.15
2024-02-22T13:07:01.461Z,13.20
2024-02-22T13:08:10.760Z,13.18
2024-02-22T13:09:15.489Z,13.17
2024-02-22T13:10:19.228Z,13.20
2024-02-22T13:11:21.749Z,13.22
2024-02-22T13:12:24.080Z,13.22
2024-02-22T13:13:26.569Z,13.18
2024-02-22T13:14:28.895Z,13.19
2024-02-22T13:15:31.852Z,13.19
2024-02-22T13:16:36.247Z,13.22
2024-02-22T13:17:39.060Z,13.21
2024-02-22T13:18:41.406Z,13.24
2024-02-22T13:19:43.765Z,13.27
2024-02-22T13:20:46.016Z,13.35
2024-02-22T13:21:48.258Z,13.37
2024-02-22T13:22:50.557Z,13.41
2024-02-22T13:23:52.904Z,13.44
2024-02-22T13:24:55.141Z,13.48
2024-02-22T13:25:58.815Z,13.52
2024-02-22T13:27:01.434Z,13.51
2024-02-22T13:28:03.839Z,13.56
2024-02-22T13:29:06.103Z,13.53
2024-02-22T13:30:11.669Z,13.52
2024-02-22T13:31:14.088Z,13.53
2024-02-22T13:32:16.393Z,13.50
2024-02-22T13:33:18.704Z,13.49
2024-02-22T13:34:21.021Z,13.48
2024-02-22T13:35:23.414Z,13.49
2024-02-22T13:36:25.700Z,13.46
2024-02-22T13:37:27.968Z,13.47
2024-02-22T13:38:30.246Z,13.49
2024-02-22T13:39:32.560Z,13.48
2024-02-22T13:40:34.843Z,13.52
2024-02-22T13:41:37.087Z,13.47
2024-02-22T13:42:39.510Z,13.40
2024-02-22T13:43:42.790Z,13.38
2024-02-22T13:44:46.986Z,13.34
2024-02-22T13:45:49.388Z,13.26
2024-02-22T13:46:53.495Z,13.19
2024-02-22T13:47:55.872Z,13.08
2024-02-22T13:48:58.436Z,13.03
2024-02-22T13:50:00.785Z,12.95
2024-02-22T13:51:03.470Z,12.84
2024-02-22T13:52:11.018Z,12.75